createdAt,value
2022-08-07T00:00:46.117Z,17.30
2022-08-07T00:03:36.577Z,17.20
2022-08-07T00:06:32.969Z,17.10
2022-08-07T00:09:29.150Z,17.10
2022-08-07T00:12:24.345Z,17.20
2022-08-07T00:15:16.235Z,17.20
2022-08-07T00:18:05.530Z,17.20
2022-08-07T00:20:56.988Z,17.30
2022-08-07T00:23:46.384Z,17.20
2022-08-07T00:26:58.815Z,17.30
2022-08-07T00:29:45.642Z,17.00
2022-08-07T00:32:36.805Z,17.10
2022-08-07T00:35:25.606Z,16.90
2022-08-07T00:38:15.185Z,16.90
2022-08-07T00:41:04.794Z,17.00
2022-08-07T00:44:02.839Z,16.90
2022-08-07T00:46:51.855Z,17.10
2022-08-07T00:50:19.564Z,17.00
2022-08-07T00:52:51.387Z,17.20
2022-08-07T00:56:02.330Z,16.90
2022-08-07T00:58:50.538Z,17.00
2022-08-07T01:01:44.080Z,16.80
2022-08-07T01:04:34.663Z,16.80
2022-08-07T01:07:30.972Z,16.80
2022-08-07T01:10:20.906Z,16.70
2022-08-07T01:13:09.910Z,16.70
2022-08-07T01:16:07.042Z,16.60
2022-08-07T01:18:57.018Z,16.50
2022-08-07T01:21:49.057Z,16.50
2022-08-07T01:24:38.846Z,16.50
2022-08-07T01:27:32.053Z,16.60
2022-08-07T01:30:27.263Z,16.50
2022-08-07T01:33:18.405Z,16.50
2022-08-07T01:36:09.957Z,16.60
2022-08-07T01:39:09.595Z,16.60
2022-08-07T01:42:37.065Z,16.60
2022-08-07T01:45:17.727Z,16.60
2022-08-07T01:48:19.261Z,16.50
2022-08-07T01:52:02.129Z,16.30
2022-08-07T01:54:33.402Z,16.40
2022-08-07T01:58:01.300Z,16.50
2022-08-07T02:00:49.142Z,16.60
2022-08-07T02:03:48.584Z,16.60
2022-08-07T02:06:40.435Z,16.60
2022-08-07T02:09:51.917Z,16.50
2022-08-07T02:12:50.157Z,16.60
2022-08-07T02:15:45.701Z,16.60
2022-08-07T02:18:37.589Z,16.70
2022-08-07T02:21:55.964Z,16.60
2022-08-07T02:24:49.403Z,16.60
2022-08-07T02:27:41.161Z,16.60
2022-08-07T02:30:30.943Z,16.60
2022-08-07T02:33:21.520Z,16.60
2022-08-07T02:36:28.755Z,16.60
2022-08-07T02:39:42.425Z,16.50
2022-08-07T02:42:34.982Z,16.60
2022-08-07T02:46:00.276Z,16.70
2022-08-07T02:48:35.005Z,16.50
2022-08-07T02:51:42.956Z,16.60
2022-08-07T02:54:40.471Z,16.70
2022-08-07T02:57:36.737Z,16.70
2022-08-07T03:00:30.204Z,16.70
2022-08-07T03:03:23.392Z,16.70
2022-08-07T03:06:25.975Z,16.70
2022-08-07T03:09:42.442Z,16.60
2022-08-07T03:12:35.240Z,16.50
2022-08-07T03:15:55.709Z,16.80
2022-08-07T03:18:40.237Z,16.80
2022-08-07T03:21:33.453Z,16.70
2022-08-07T03:24:26.730Z,16.70
2022-08-07T03:27:30.258Z,16.60
2022-08-07T03:30:24.472Z,16.60
2022-08-07T03:33:15.825Z,16.50
2022-08-07T03:36:10.850Z,16.60
2022-08-07T03:39:05.437Z,16.70
2022-08-07T03:41:55.968Z,16.70
2022-08-07T03:44:53.603Z,16.50
2022-08-07T03:47:51.497Z,16.60
2022-08-07T03:50:55.978Z,16.60
2022-08-07T03:54:33.484Z,16.60
2022-08-07T03:57:07.611Z,16.70
2022-08-07T04:00:02.791Z,16.70
2022-08-07T04:03:06.447Z,16.80
2022-08-07T04:06:01.170Z,16.90
2022-08-07T04:08:53.877Z,16.90
2022-08-07T04:12:21.206Z,16.90
2022-08-07T04:14:56.240Z,16.90
2022-08-07T04:18:57.182Z,17.00
2022-08-07T04:20:56.530Z,17.00
2022-08-07T04:24:06.044Z,17.20
2022-08-07T04:26:58.202Z,17.20
2022-08-07T04:29:58.229Z,17.20
2022-08-07T04:32:58.168Z,17.30
2022-08-07T04:35:50.536Z,17.20
2022-08-07T04:38:46.058Z,17.40
2022-08-07T04:41:36.834Z,17.50
2022-08-07T04:44:26.070Z,17.50
2022-08-07T04:48:01.600Z,17.60
2022-08-07T04:50:51.977Z,17.60
2022-08-07T04:54:01.866Z,17.60
2022-08-07T04:58:15.942Z,17.80
2022-08-07T05:04:00.539Z,17.80
2022-08-07T05:06:42.948Z,17.90
2022-08-07T05:09:45.998Z,17.90
2022-08-07T05:12:46.286Z,17.90
2022-08-07T05:15:44.897Z,18.10
2022-08-07T05:18:37.170Z,18.10
2022-08-07T05:22:00.564Z,18.20
2022-08-07T05:24:41.714Z,18.20
2022-08-07T05:28:16.246Z,18.20
2022-08-07T05:30:47.154Z,18.30
2022-08-07T05:33:38.324Z,18.50
2022-08-07T05:36:32.446Z,18.50
2022-08-07T05:40:13.549Z,18.80
2022-08-07T05:42:36.955Z,18.90
2022-08-07T05:45:47.104Z,18.80
2022-08-07T05:48:59.381Z,18.70
2022-08-07T05:51:51.983Z,18.90
2022-08-07T05:54:55.425Z,19.00
2022-08-07T05:57:48.700Z,19.10
2022-08-07T06:00:41.043Z,19.00
2022-08-07T06:03:54.029Z,19.10
2022-08-07T06:06:47.727Z,19.90
2022-08-07T06:10:05.325Z,21.50
2022-08-07T06:12:57.255Z,23.60
2022-08-07T06:15:49.907Z,25.10
2022-08-07T06:18:51.858Z,25.90
2022-08-07T06:22:16.273Z,24.70
2022-08-07T06:25:01.109Z,22.50
2022-08-07T06:28:00.680Z,20.90
2022-08-07T06:30:52.952Z,20.50
2022-08-07T06:33:43.518Z,20.00
2022-08-07T06:36:36.007Z,20.10
2022-08-07T06:40:16.777Z,20.00
2022-08-07T06:42:39.156Z,20.30
2022-08-07T06:45:35.792Z,21.70
2022-08-07T06:48:27.563Z,22.10
2022-08-07T06:51:31.269Z,21.50
2022-08-07T06:55:32.991Z,21.00
2022-08-07T06:57:43.616Z,21.00
2022-08-07T07:00:44.110Z,20.60
2022-08-07T07:03:39.640Z,20.40
2022-08-07T07:06:57.257Z,20.50
2022-08-07T07:09:48.232Z,20.40
2022-08-07T07:12:48.847Z,20.50
2022-08-07T07:15:51.704Z,20.50
2022-08-07T07:18:48.000Z,20.50
2022-08-07T07:22:12.021Z,20.70
2022-08-07T07:24:57.061Z,20.90
2022-08-07T07:28:02.299Z,21.20
2022-08-07T07:31:07.979Z,21.00
2022-08-07T07:34:07.441Z,21.00
2022-08-07T07:36:57.744Z,21.50
2022-08-07T07:40:10.063Z,21.90
2022-08-07T07:43:15.049Z,22.20
2022-08-07T07:46:39.714Z,21.70
2022-08-07T07:50:33.755Z,22.20
2022-08-07T07:52:31.479Z,22.60
2022-08-07T07:55:21.643Z,23.00
2022-08-07T07:58:12.793Z,23.20
2022-08-07T08:01:02.389Z,23.60
2022-08-07T08:04:12.992Z,24.00
2022-08-07T08:07:07.787Z,24.10
2022-08-07T08:10:05.382Z,24.20
2022-08-07T08:12:59.985Z,24.50
2022-08-07T08:18:36.322Z,24.30
2022-08-07T08:19:18.199Z,24.50
2022-08-07T08:22:32.982Z,24.70
2022-08-07T08:25:43.029Z,25.10
2022-08-07T08:28:43.425Z,25.50
2022-08-07T08:31:58.666Z,25.30
2022-08-07T08:34:55.763Z,25.30
2022-08-07T08:38:00.397Z,25.20
2022-08-07T08:40:57.400Z,25.60
2022-08-07T08:43:59.040Z,25.30
2022-08-07T08:47:09.985Z,25.60
2022-08-07T08:50:10.878Z,25.70
2022-08-07T08:53:07.503Z,26.20
2022-08-07T08:55:59.373Z,26.20
2022-08-07T08:59:06.630Z,26.80
2022-08-07T09:02:10.776Z,27.10
2022-08-07T09:05:11.987Z,26.60
2022-08-07T09:08:28.185Z,27.10
2022-08-07T09:11:24.837Z,27.80
2022-08-07T09:14:35.289Z,27.90
2022-08-07T09:17:58.974Z,28.40
2022-08-07T09:20:58.477Z,28.40
2022-08-07T09:24:31.833Z,27.80
2022-08-07T09:27:24.571Z,27.90
2022-08-07T09:30:20.656Z,27.10
2022-08-07T09:33:52.652Z,28.20
2022-08-07T09:36:46.679Z,28.80
2022-08-07T09:39:55.093Z,28.90
2022-08-07T09:42:55.849Z,28.80
2022-08-07T09:47:52.543Z,29.00
2022-08-07T09:50:04.010Z,29.30
2022-08-07T09:52:33.569Z,30.20
2022-08-07T09:56:03.695Z,31.40
2022-08-07T09:59:07.522Z,30.20
2022-08-07T10:02:29.533Z,28.20
2022-08-07T10:05:59.544Z,26.90
2022-08-07T10:09:18.155Z,28.70
2022-08-07T10:12:53.190Z,29.50
2022-08-07T10:15:57.565Z,30.40
2022-08-07T10:19:11.375Z,31.30
2022-08-07T10:22:24.950Z,31.60
2022-08-07T10:25:42.745Z,32.20
2022-08-07T10:28:55.496Z,32.40
2022-08-07T10:31:59.067Z,30.40
2022-08-07T10:34:59.667Z,31.00
2022-08-07T10:38:35.331Z,33.40
2022-08-07T10:41:52.167Z,34.50
2022-08-07T10:44:45.254Z,35.00
2022-08-07T10:47:54.449Z,35.20
2022-08-07T10:50:50.187Z,34.90
2022-08-07T10:53:46.746Z,35.40
2022-08-07T10:56:47.496Z,35.20
2022-08-07T10:59:52.727Z,36.40
2022-08-07T11:02:49.186Z,35.80
2022-08-07T11:05:51.006Z,32.20
2022-08-07T11:08:45.085Z,33.90
2022-08-07T11:11:40.707Z,33.70
2022-08-07T11:14:46.521Z,34.50
2022-08-07T11:17:54.131Z,35.60
2022-08-07T11:20:49.859Z,37.10
2022-08-07T11:23:48.632Z,36.70
2022-08-07T11:26:49.811Z,37.00
2022-08-07T11:29:47.450Z,36.80
2022-08-07T11:32:44.717Z,36.40
2022-08-07T11:35:59.872Z,36.40
2022-08-07T11:38:58.840Z,37.50
2022-08-07T11:42:00.193Z,39.30
2022-08-07T11:44:57.541Z,39.80
2022-08-07T11:48:02.641Z,39.80
2022-08-07T11:51:10.209Z,40.50
2022-08-07T11:54:35.042Z,38.90
2022-08-07T11:58:00.025Z,37.80
2022-08-07T12:01:02.703Z,38.20
2022-08-07T12:04:08.102Z,38.50
2022-08-07T12:07:14.000Z,40.10
2022-08-07T12:10:16.642Z,40.20
2022-08-07T12:13:17.154Z,40.60
2022-08-07T12:16:14.833Z,42.20
2022-08-07T12:19:29.748Z,42.60
2022-08-07T12:22:56.340Z,42.50
2022-08-07T12:26:05.800Z,42.70
2022-08-07T12:29:11.202Z,42.50
2022-08-07T12:32:05.804Z,40.70
2022-08-07T12:34:57.558Z,39.40
2022-08-07T12:38:10.201Z,38.40
2022-08-07T12:41:05.171Z,33.90
2022-08-07T12:44:03.481Z,31.50
2022-08-07T12:47:10.807Z,29.60
2022-08-07T12:50:38.371Z,29.10
2022-08-07T12:53:22.047Z,28.70
2022-08-07T12:56:20.730Z,27.00
2022-08-07T12:59:20.736Z,26.60
2022-08-07T13:02:33.043Z,27.10
2022-08-07T13:06:03.743Z,27.00
2022-08-07T13:09:00.985Z,26.20
2022-08-07T13:12:02.953Z,26.00
2022-08-07T13:15:02.602Z,26.20
2022-08-07T13:17:59.595Z,25.50
2022-08-07T13:20:53.926Z,25.10
2022-08-07T13:24:04.178Z,24.80
2022-08-07T13:27:02.798Z,24.20
2022-08-07T13:30:03.740Z,24.20
2022-08-07T13:32:57.374Z,24.60
2022-08-07T13:36:00.584Z,24.90
2022-08-07T13:39:04.946Z,25.00
2022-08-07T13:42:02.042Z,25.00
2022-08-07T13:44:55.418Z,24.90
2022-08-07T13:48:08.429Z,24.50
2022-08-07T13:51:01.908Z,24.50
2022-08-07T13:54:00.238Z,24.30
2022-08-07T13:56:59.573Z,24.20
2022-08-07T13:59:55.801Z,24.70
2022-08-07T14:02:51.134Z,24.70
2022-08-07T14:05:46.352Z,24.80
2022-08-07T14:08:44.263Z,24.40
2022-08-07T14:12:00.070Z,24.00
2022-08-07T14:14:52.975Z,24.20
2022-08-07T14:18:15.485Z,23.90
2022-08-07T14:20:59.860Z,23.90
2022-08-07T14:24:02.417Z,23.70
2022-08-07T14:26:55.720Z,23.80
2022-08-07T14:30:07.162Z,23.90
2022-08-07T14:33:04.642Z,23.90
2022-08-07T14:35:57.067Z,23.80
2022-08-07T14:38:50.657Z,23.90
2022-08-07T14:42:19.942Z,24.20
2022-08-07T14:44:54.121Z,24.20
2022-08-07T14:47:50.416Z,24.10
2022-08-07T14:50:45.664Z,24.10
2022-08-07T14:54:03.783Z,24.30
2022-08-07T14:56:51.610Z,24.20
2022-08-07T15:00:05.037Z,24.10
2022-08-07T15:06:04.492Z,24.40
2022-08-07T15:08:54.871Z,24.20
2022-08-07T15:11:54.286Z,24.20
2022-08-07T15:14:55.995Z,24.30
2022-08-07T15:21:03.990Z,23.90
2022-08-07T15:25:15.313Z,23.90
2022-08-07T15:27:15.404Z,23.50
2022-08-07T15:30:16.442Z,23.30
2022-08-07T15:33:20.176Z,23.40
2022-08-07T15:36:13.761Z,23.30
2022-08-07T15:39:25.969Z,23.20
2022-08-07T15:42:46.252Z,23.40
2022-08-07T15:45:56.139Z,23.30
2022-08-07T15:49:13.352Z,23.20
2022-08-07T15:54:56.905Z,23.60
2022-08-07T15:58:00.368Z,23.50
2022-08-07T16:00:51.740Z,23.50
2022-08-07T16:03:47.152Z,23.50
2022-08-07T16:06:45.592Z,23.60
2022-08-07T16:09:42.625Z,23.30
2022-08-07T16:12:39.139Z,23.50
2022-08-07T16:15:55.443Z,23.40
2022-08-07T16:19:04.924Z,23.50
2022-08-07T16:22:19.248Z,23.60
2022-08-07T16:25:52.745Z,23.50
2022-08-07T16:30:05.748Z,23.40
2022-08-07T16:32:34.605Z,23.10
2022-08-07T16:35:51.952Z,22.90
2022-08-07T16:39:01.128Z,22.80
2022-08-07T16:42:14.863Z,22.80
2022-08-07T16:46:21.048Z,23.00
2022-08-07T16:50:20.739Z,22.90
2022-08-07T16:52:49.145Z,22.80
2022-08-07T16:55:43.666Z,22.80
2022-08-07T16:59:14.148Z,22.80
2022-08-07T17:02:53.517Z,22.80
2022-08-07T17:06:28.565Z,22.70
2022-08-07T17:10:05.157Z,22.70
2022-08-07T17:12:38.769Z,22.60
2022-08-07T17:15:44.352Z,22.70
2022-08-07T17:18:46.029Z,22.70
2022-08-07T17:21:51.753Z,22.50
2022-08-07T17:24:53.426Z,22.50
2022-08-07T17:27:59.067Z,22.40
2022-08-07T17:30:59.172Z,22.30
2022-08-07T17:34:32.568Z,22.30
2022-08-07T17:38:04.832Z,22.50
2022-08-07T17:40:30.591Z,22.70
2022-08-07T17:44:01.318Z,22.50
2022-08-07T17:46:44.378Z,22.40
2022-08-07T17:49:46.205Z,22.30
2022-08-07T17:52:40.029Z,22.50
2022-08-07T17:56:00.746Z,22.60
2022-08-07T17:58:47.107Z,22.60
2022-08-07T18:01:48.440Z,22.50
2022-08-07T18:04:48.719Z,22.40
2022-08-07T18:07:44.871Z,22.30
2022-08-07T18:12:07.152Z,22.30
2022-08-07T18:13:55.665Z,22.20
2022-08-07T18:16:59.117Z,22.10
2022-08-07T18:21:09.922Z,22.10
2022-08-07T18:23:41.020Z,22.10
2022-08-07T18:26:33.161Z,22.00
2022-08-07T18:30:06.278Z,22.00
2022-08-07T18:33:10.533Z,21.80
2022-08-07T18:36:14.282Z,21.80
2022-08-07T18:40:06.754Z,21.80
2022-08-07T18:42:29.253Z,21.80
2022-08-07T18:45:43.220Z,21.70
2022-08-07T18:50:30.305Z,21.70
2022-08-07T18:52:25.416Z,21.70
2022-08-07T18:55:42.626Z,21.80
2022-08-07T18:58:59.814Z,21.80
2022-08-07T19:02:32.452Z,21.60
2022-08-07T19:05:17.739Z,21.70
2022-08-07T19:08:11.956Z,21.70
2022-08-07T19:11:35.145Z,21.70
2022-08-07T19:14:42.176Z,21.60
2022-08-07T19:18:01.777Z,21.60
2022-08-07T19:21:09.789Z,21.50
2022-08-07T19:24:10.349Z,21.60
2022-08-07T19:28:30.745Z,21.60
2022-08-07T19:30:57.727Z,21.60
2022-08-07T19:33:33.620Z,21.60
2022-08-07T19:36:27.839Z,21.60
2022-08-07T19:39:40.455Z,21.60
2022-08-07T19:42:34.677Z,21.50
2022-08-07T19:46:05.320Z,21.40
2022-08-07T19:48:42.679Z,21.40
2022-08-07T19:51:53.053Z,21.30
2022-08-07T19:54:45.134Z,21.30
2022-08-07T19:58:04.683Z,21.30
2022-08-07T20:01:01.961Z,21.30
2022-08-07T20:03:56.167Z,21.30
2022-08-07T20:06:49.442Z,21.20
2022-08-07T20:10:33.607Z,21.10
2022-08-07T20:12:56.324Z,21.20
2022-08-07T20:15:45.291Z,21.10
2022-08-07T20:18:35.682Z,21.00
2022-08-07T20:21:25.234Z,20.90
2022-08-07T20:24:22.941Z,20.90
2022-08-07T20:27:14.046Z,20.80
2022-08-07T20:30:29.034Z,20.80
2022-08-07T20:33:36.801Z,20.70
2022-08-07T20:36:29.796Z,20.70
2022-08-07T20:39:30.933Z,20.60
2022-08-07T20:42:40.917Z,20.70
2022-08-07T20:46:25.873Z,20.60
2022-08-07T20:49:54.530Z,20.60
2022-08-07T20:52:00.862Z,20.60
2022-08-07T20:54:53.681Z,20.60
2022-08-07T20:57:47.380Z,20.50
2022-08-07T21:00:42.799Z,20.40
2022-08-07T21:03:34.540Z,20.30
2022-08-07T21:06:28.437Z,20.30
2022-08-07T21:09:24.601Z,20.30
2022-08-07T21:12:28.582Z,20.30
2022-08-07T21:15:19.837Z,20.20
2022-08-07T21:18:33.470Z,20.20
2022-08-07T21:21:27.053Z,20.20
2022-08-07T21:24:25.265Z,20.10
2022-08-07T21:27:40.133Z,20.10
2022-08-07T21:30:45.105Z,20.20
2022-08-07T21:33:41.987Z,20.10
2022-08-07T21:36:37.340Z,20.00
2022-08-07T21:39:44.930Z,20.00
2022-08-07T21:42:51.278Z,19.80
2022-08-07T21:46:07.806Z,19.80
2022-08-07T21:49:00.767Z,19.90
2022-08-07T21:52:05.522Z,19.90
2022-08-07T21:55:05.041Z,19.80
2022-08-07T21:58:06.026Z,19.60
2022-08-07T22:01:00.629Z,19.60
2022-08-07T22:04:00.656Z,19.50
2022-08-07T22:06:59.106Z,19.60
2022-08-07T22:09:54.357Z,19.60
2022-08-07T22:12:47.360Z,19.60
2022-08-07T22:16:41.463Z,19.50
2022-08-07T22:19:01.512Z,19.50
2022-08-07T22:22:02.087Z,19.50
2022-08-07T22:24:57.883Z,19.40
2022-08-07T22:28:29.435Z,19.40
2022-08-07T22:31:09.904Z,19.30
2022-08-07T22:34:05.714Z,19.20
2022-08-07T22:37:12.289Z,19.20
2022-08-07T22:40:19.615Z,19.30
2022-08-07T22:43:11.238Z,19.20
2022-08-07T22:46:56.001Z,19.10
2022-08-07T22:49:54.178Z,19.20
2022-08-07T22:53:05.216Z,19.20
2022-08-07T22:56:00.585Z,19.20
2022-08-07T22:59:26.853Z,19.00
2022-08-07T23:02:41.686Z,19.10
2022-08-07T23:06:15.507Z,19.00
2022-08-07T23:10:01.119Z,19.00
2022-08-07T23:12:52.049Z,19.00
2022-08-07T23:16:05.669Z,19.10
2022-08-07T23:19:19.825Z,19.10
2022-08-07T23:22:52.292Z,19.00
2022-08-07T23:25:56.682Z,18.80
2022-08-07T23:29:43.443Z,18.80
2022-08-07T23:34:18.971Z,18.70
2022-08-07T23:36:01.782Z,18.70
2022-08-07T23:39:08.316Z,18.60
2022-08-07T23:42:07.057Z,18.60
2022-08-07T23:45:07.551Z,18.50
2022-08-07T23:48:25.133Z,18.50
2022-08-07T23:52:59.451Z,18.40
2022-08-07T23:54:44.566Z,18.30
2022-08-07T23:57:38.549Z,18.40
